sensor_id;sensor_type;location;lat;lon;timestamp;pressure;altitude;pressure_sealevel;temperature;humidity
58662;BME280;44432;49.786;22.760;2023-05-22T00:02:21;99677.70;;;9.86;73.97
58662;BME280;44432;49.786;22.760;2023-05-22T00:04:52;99671.80;;;9.83;74.11
58662;BME280;44432;49.786;22.760;2023-05-22T00:07:22;99666.99;;;9.78;74.27
58662;BME280;44432;49.786;22.760;2023-05-22T00:09:55;99670.52;;;9.74;74.29
58662;BME280;44432;49.786;22.760;2023-05-22T00:12:26;99672.40;;;9.70;74.19
58662;BME280;44432;49.786;22.760;2023-05-22T00:14:56;99668.52;;;9.65;74.43
58662;BME280;44432;49.786;22.760;2023-05-22T00:17:27;99670.14;;;9.62;74.56
58662;BME280;44432;49.786;22.760;2023-05-22T00:19:58;99665.86;;;9.58;74.68
58662;BME280;44432;49.786;22.760;2023-05-22T00:22:35;99667.67;;;9.55;74.70
58662;BME280;44432;49.786;22.760;2023-05-22T00:25:08;99668.86;;;9.49;74.88
58662;BME280;44432;49.786;22.760;2023-05-22T00:27:39;99664.84;;;9.48;75.08
58662;BME280;44432;49.786;22.760;2023-05-22T00:30:11;99663.21;;;9.47;75.21
58662;BME280;44432;49.786;22.760;2023-05-22T00:32:42;99664.19;;;9.46;75.43
58662;BME280;44432;49.786;22.760;2023-05-22T00:35:12;99662.33;;;9.46;75.43
58662;BME280;44432;49.786;22.760;2023-05-22T00:37:43;99662.48;;;9.45;75.50
58662;BME280;44432;49.786;22.760;2023-05-22T00:40:15;99656.90;;;9.40;75.58
58662;BME280;44432;49.786;22.760;2023-05-22T00:42:46;99651.77;;;9.38;75.78
58662;BME280;44432;49.786;22.760;2023-05-22T00:45:17;99649.77;;;9.34;75.62
58662;BME280;44432;49.786;22.760;2023-05-22T00:47:48;99650.04;;;9.31;75.89
58662;BME280;44432;49.786;22.760;2023-05-22T00:50:20;99652.52;;;9.28;75.77
58662;BME280;44432;49.786;22.760;2023-05-22T00:52:51;99654.10;;;9.24;75.69
58662;BME280;44432;49.786;22.760;2023-05-22T00:55:21;99653.77;;;9.20;75.90
58662;BME280;44432;49.786;22.760;2023-05-22T00:57:52;99654.33;;;9.16;75.86
58662;BME280;44432;49.786;22.760;2023-05-22T01:00:23;99657.67;;;9.12;76.00
58662;BME280;44432;49.786;22.760;2023-05-22T01:02:54;99658.35;;;9.11;76.28
58662;BME280;44432;49.786;22.760;2023-05-22T01:05:25;99658.61;;;9.08;76.13
58662;BME280;44432;49.786;22.760;2023-05-22T01:07:56;99661.05;;;9.02;76.11
58662;BME280;44432;49.786;22.760;2023-05-22T01:10:27;99661.50;;;8.96;76.02
58662;BME280;44432;49.786;22.760;2023-05-22T01:13:03;99661.47;;;8.92;75.97
58662;BME280;44432;49.786;22.760;2023-05-22T01:15:40;99661.48;;;8.88;76.15
58662;BME280;44432;49.786;22.760;2023-05-22T01:18:18;99656.95;;;8.83;76.25
58662;BME280;44432;49.786;22.760;2023-05-22T01:20:59;99655.33;;;8.78;76.25
58662;BME280;44432;49.786;22.760;2023-05-22T01:23:58;99652.44;;;8.72;76.59
58662;BME280;44432;49.786;22.760;2023-05-22T01:29:42;99650.88;;;8.62;76.81
58662;BME280;44432;49.786;22.760;2023-05-22T01:32:19;99648.41;;;8.58;76.80
58662;BME280;44432;49.786;22.760;2023-05-22T01:34:53;99645.13;;;8.53;77.23
58662;BME280;44432;49.786;22.760;2023-05-22T01:37:25;99648.51;;;8.50;77.36
58662;BME280;44432;49.786;22.760;2023-05-22T01:39:57;99645.73;;;8.47;77.40
58662;BME280;44432;49.786;22.760;2023-05-22T01:42:28;99650.57;;;8.44;77.54
58662;BME280;44432;49.786;22.760;2023-05-22T01:44:59;99649.46;;;8.42;77.85
58662;BME280;44432;49.786;22.760;2023-05-22T01:47:30;99650.95;;;8.41;77.80
58662;BME280;44432;49.786;22.760;2023-05-22T01:50:02;99651.50;;;8.40;77.94
58662;BME280;44432;49.786;22.760;2023-05-22T01:52:38;99652.77;;;8.37;77.72
58662;BME280;44432;49.786;22.760;2023-05-22T01:55:12;99651.75;;;8.34;78.15
58662;BME280;44432;49.786;22.760;2023-05-22T01:57:51;99654.21;;;8.32;77.73
58662;BME280;44432;49.786;22.760;2023-05-22T02:00:26;99656.11;;;8.31;78.33
58662;BME280;44432;49.786;22.760;2023-05-22T02:03:04;99659.73;;;8.30;78.15
58662;BME280;44432;49.786;22.760;2023-05-22T02:05:37;99659.62;;;8.30;78.10
58662;BME280;44432;49.786;22.760;2023-05-22T02:08:10;99656.80;;;8.27;78.46
58662;BME280;44432;49.786;22.760;2023-05-22T02:10:41;99654.58;;;8.27;78.79
58662;BME280;44432;49.786;22.760;2023-05-22T02:13:12;99653.02;;;8.24;78.61
58662;BME280;44432;49.786;22.760;2023-05-22T02:15:45;99655.88;;;8.23;78.63
58662;BME280;44432;49.786;22.760;2023-05-22T02:18:17;99652.97;;;8.20;78.80
58662;BME280;44432;49.786;22.760;2023-05-22T02:20:47;99651.74;;;8.18;78.80
58662;BME280;44432;49.786;22.760;2023-05-22T02:23:18;99645.63;;;8.14;78.66
58662;BME280;44432;49.786;22.760;2023-05-22T02:25:49;99647.48;;;8.08;78.79
58662;BME280;44432;49.786;22.760;2023-05-22T02:28:19;99643.27;;;8.04;79.05
58662;BME280;44432;49.786;22.760;2023-05-22T02:30:50;99645.17;;;8.00;79.04
58662;BME280;44432;49.786;22.760;2023-05-22T02:33:21;99646.80;;;7.98;79.40
58662;BME280;44432;49.786;22.760;2023-05-22T02:35:51;99648.59;;;7.95;79.08
58662;BME280;44432;49.786;22.760;2023-05-22T02:38:22;99647.04;;;7.94;79.41
58662;BME280;44432;49.786;22.760;2023-05-22T02:40:52;99648.09;;;7.94;79.36
58662;BME280;44432;49.786;22.760;2023-05-22T02:43:23;99645.44;;;7.91;79.26
58662;BME280;44432;49.786;22.760;2023-05-22T02:45:54;99650.24;;;7.90;79.16
58662;BME280;44432;49.786;22.760;2023-05-22T02:48:24;99645.17;;;7.89;79.47
58662;BME280;44432;49.786;22.760;2023-05-22T02:50:57;99647.75;;;7.88;79.78
58662;BME280;44432;49.786;22.760;2023-05-22T02:53:28;99646.05;;;7.89;79.84
58662;BME280;44432;49.786;22.760;2023-05-22T02:55:59;99645.33;;;7.89;79.91
58662;BME280;44432;49.786;22.760;2023-05-22T02:58:29;99639.02;;;7.89;79.93
58662;BME280;44432;49.786;22.760;2023-05-22T03:01:00;99640.59;;;7.89;79.79
58662;BME280;44432;49.786;22.760;2023-05-22T03:03:31;99642.84;;;7.91;79.65
58662;BME280;44432;49.786;22.760;2023-05-22T03:06:02;99636.35;;;7.92;79.95
58662;BME280;44432;49.786;22.760;2023-05-22T03:08:33;99633.96;;;7.93;79.70
58662;BME280;44432;49.786;22.760;2023-05-22T03:11:06;99635.14;;;7.93;79.91
58662;BME280;44432;49.786;22.760;2023-05-22T03:13:37;99636.61;;;7.95;79.53
58662;BME280;44432;49.786;22.760;2023-05-22T03:16:07;99637.38;;;7.94;79.68
58662;BME280;44432;49.786;22.760;2023-05-22T03:18:38;99640.90;;;7.95;79.96
58662;BME280;44432;49.786;22.760;2023-05-22T03:21:09;99641.69;;;7.96;79.76
58662;BME280;44432;49.786;22.760;2023-05-22T03:23:40;99640.71;;;7.99;80.10
58662;BME280;44432;49.786;22.760;2023-05-22T03:26:10;99638.19;;;8.02;79.82
58662;BME280;44432;49.786;22.760;2023-05-22T03:28:41;99642.45;;;8.07;80.12
58662;BME280;44432;49.786;22.760;2023-05-22T03:31:11;99641.25;;;8.09;80.06
58662;BME280;44432;49.786;22.760;2023-05-22T03:33:42;99642.23;;;8.14;80.21
58662;BME280;44432;49.786;22.760;2023-05-22T03:36:12;99646.02;;;8.17;79.72
58662;BME280;44432;49.786;22.760;2023-05-22T03:38:44;99644.26;;;8.22;79.92
58662;BME280;44432;49.786;22.760;2023-05-22T03:41:14;99646.10;;;8.26;79.92
58662;BME280;44432;49.786;22.760;2023-05-22T03:43:46;99641.52;;;8.27;79.80
58662;BME280;44432;49.786;22.760;2023-05-22T03:46:17;99643.20;;;8.32;79.79
58662;BME280;44432;49.786;22.760;2023-05-22T03:48:47;99645.00;;;8.37;80.01
58662;BME280;44432;49.786;22.760;2023-05-22T03:51:18;99646.15;;;8.43;79.81
58662;BME280;44432;49.786;22.760;2023-05-22T03:53:48;99646.43;;;8.48;79.75
58662;BME280;44432;49.786;22.760;2023-05-22T03:56:19;99643.60;;;8.53;79.44
58662;BME280;44432;49.786;22.760;2023-05-22T03:58:50;99641.36;;;8.58;79.36
58662;BME280;44432;49.786;22.760;2023-05-22T04:01:21;99642.38;;;8.63;79.65
58662;BME280;44432;49.786;22.760;2023-05-22T04:03:51;99643.30;;;8.66;79.55
58662;BME280;44432;49.786;22.760;2023-05-22T04:06:22;99647.27;;;8.71;79.50
58662;BME280;44432;49.786;22.760;2023-05-22T04:08:53;99646.17;;;8.77;79.58
58662;BME280;44432;49.786;22.760;2023-05-22T04:11:24;99640.98;;;8.83;79.86
58662;BME280;44432;49.786;22.760;2023-05-22T04:13:55;99639.66;;;8.90;79.69
58662;BME280;44432;49.786;22.760;2023-05-22T04:16:25;99643.36;;;8.98;79.59
58662;BME280;44432;49.786;22.760;2023-05-22T04:18:56;99646.84;;;9.05;79.58
58662;BME280;44432;49.786;22.760;2023-05-22T04:21:27;99644.98;;;9.13;79.77
58662;BME280;44432;49.786;22.760;2023-05-22T04:23:57;99645.96;;;9.20;79.53
58662;BME280;44432;49.786;22.760;2023-05-22T04:26:28;99644.02;;;9.29;79.62
58662;BME280;44432;49.786;22.760;2023-05-22T04:29:00;99647.41;;;9.36;79.48
58662;BME280;44432;49.786;22.760;2023-05-22T04:31:30;99645.34;;;9.45;79.42
58662;BME280;44432;49.786;22.760;2023-05-22T04:34:01;99641.10;;;9.53;79.45
58662;BME280;44432;49.786;22.760;2023-05-22T04:36:32;99642.73;;;9.64;79.21
58662;BME280;44432;49.786;22.760;2023-05-22T04:39:04;99640.05;;;9.73;79.05
58662;BME280;44432;49.786;22.760;2023-05-22T04:41:35;99636.98;;;9.80;78.73
58662;BME280;44432;49.786;22.760;2023-05-22T04:44:05;99630.31;;;9.88;78.63
58662;BME280;44432;49.786;22.760;2023-05-22T04:46:36;99628.80;;;9.97;78.45
58662;BME280;44432;49.786;22.760;2023-05-22T04:49:07;99632.66;;;10.05;78.34
58662;BME280;44432;49.786;22.760;2023-05-22T04:51:38;99628.66;;;10.14;78.15
58662;BME280;44432;49.786;22.760;2023-05-22T04:54:09;99630.54;;;10.25;77.95
58662;BME280;44432;49.786;22.760;2023-05-22T04:56:39;99630.30;;;10.34;77.82
58662;BME280;44432;49.786;22.760;2023-05-22T04:59:10;99628.29;;;10.45;77.60
58662;BME280;44432;49.786;22.760;2023-05-22T05:01:44;99624.92;;;10.57;77.27
58662;BME280;44432;49.786;22.760;2023-05-22T05:04:16;99628.89;;;10.68;76.90
58662;BME280;44432;49.786;22.760;2023-05-22T05:06:47;99625.59;;;10.80;76.71
58662;BME280;44432;49.786;22.760;2023-05-22T05:09:17;99623.75;;;10.91;76.47
58662;BME280;44432;49.786;22.760;2023-05-22T05:11:48;99627.45;;;11.06;76.34
58662;BME280;44432;49.786;22.760;2023-05-22T05:14:19;99628.36;;;11.19;75.69
58662;BME280;44432;49.786;22.760;2023-05-22T05:16:49;99632.06;;;11.32;74.95
58662;BME280;44432;49.786;22.760;2023-05-22T05:19:20;99633.06;;;11.44;74.44
58662;BME280;44432;49.786;22.760;2023-05-22T05:21:51;99632.27;;;11.57;74.20
58662;BME280;44432;49.786;22.760;2023-05-22T05:24:22;99632.61;;;11.70;73.49
58662;BME280;44432;49.786;22.760;2023-05-22T05:26:53;99630.84;;;11.82;73.05
58662;BME280;44432;49.786;22.760;2023-05-22T05:29:23;99628.27;;;11.95;72.78
58662;BME280;44432;49.786;22.760;2023-05-22T05:31:54;99626.02;;;12.07;72.27
58662;BME280;44432;49.786;22.760;2023-05-22T05:34:25;99630.16;;;12.21;71.60
58662;BME280;44432;49.786;22.760;2023-05-22T05:36:55;99629.30;;;12.33;71.18
58662;BME280;44432;49.786;22.760;2023-05-22T05:39:26;99631.79;;;12.47;70.66
58662;BME280;44432;49.786;22.760;2023-05-22T05:41:57;99633.42;;;12.59;70.04
58662;BME280;44432;49.786;22.760;2023-05-22T05:44:28;99631.21;;;12.69;69.85
58662;BME280;44432;49.786;22.760;2023-05-22T05:46:59;99631.67;;;12.82;69.76
58662;BME280;44432;49.786;22.760;2023-05-22T05:49:30;99631.66;;;12.96;69.15
58662;BME280;44432;49.786;22.760;2023-05-22T05:52:01;99633.04;;;13.08;68.83
58662;BME280;44432;49.786;22.760;2023-05-22T05:54:32;99636.09;;;13.21;68.21
58662;BME280;44432;49.786;22.760;2023-05-22T05:57:03;99629.56;;;13.31;67.99
58662;BME280;44432;49.786;22.760;2023-05-22T05:59:34;99627.64;;;13.46;67.64
58662;BME280;44432;49.786;22.760;2023-05-22T06:02:05;99627.82;;;13.59;67.16
58662;BME280;44432;49.786;22.760;2023-05-22T06:04:35;99623.48;;;13.73;66.73
58662;BME280;44432;49.786;22.760;2023-05-22T06:07:06;99621.08;;;13.88;66.14
58662;BME280;44432;49.786;22.760;2023-05-22T06:09:37;99618.63;;;14.02;65.54
58662;BME280;44432;49.786;22.760;2023-05-22T06:12:08;99614.16;;;14.14;65.27
58662;BME280;44432;49.786;22.760;2023-05-22T06:14:39;99614.04;;;14.28;64.84
58662;BME280;44432;49.786;22.760;2023-05-22T06:17:10;99611.70;;;14.39;64.33
58662;BME280;44432;49.786;22.760;2023-05-22T06:19:40;99614.02;;;14.49;64.05
58662;BME280;44432;49.786;22.760;2023-05-22T06:22:11;99612.71;;;14.59;63.60
58662;BME280;44432;49.786;22.760;2023-05-22T06:24:42;99611.42;;;14.68;63.15
58662;BME280;44432;49.786;22.760;2023-05-22T06:27:12;99603.45;;;14.75;62.88
58662;BME280;44432;49.786;22.760;2023-05-22T06:29:43;99606.73;;;14.84;62.56
58662;BME280;44432;49.786;22.760;2023-05-22T06:32:14;99606.98;;;14.88;62.11
58662;BME280;44432;49.786;22.760;2023-05-22T06:34:47;99605.91;;;14.95;61.98
58662;BME280;44432;49.786;22.760;2023-05-22T06:37:18;99604.13;;;15.03;62.06
58662;BME280;44432;49.786;22.760;2023-05-22T06:39:48;99604.79;;;15.14;61.94
58662;BME280;44432;49.786;22.760;2023-05-22T06:42:19;99600.88;;;15.25;61.46
58662;BME280;44432;49.786;22.760;2023-05-22T06:44:50;99600.52;;;15.34;61.06
58662;BME280;44432;49.786;22.760;2023-05-22T06:47:20;99594.41;;;15.37;60.50
58662;BME280;44432;49.786;22.760;2023-05-22T06:49:51;99597.55;;;15.43;60.50
58662;BME280;44432;49.786;22.760;2023-05-22T06:52:22;99598.65;;;15.50;60.44
58662;BME280;44432;49.786;22.760;2023-05-22T06:54:53;99596.38;;;15.59;60.55
58662;BME280;44432;49.786;22.760;2023-05-22T06:57:23;99598.25;;;15.73;60.26
58662;BME280;44432;49.786;22.760;2023-05-22T06:59:56;99594.20;;;15.84;60.13
58662;BME280;44432;49.786;22.760;2023-05-22T07:02:27;99585.37;;;15.97;60.13
58662;BME280;44432;49.786;22.760;2023-05-22T07:04:58;99586.17;;;16.13;60.05
58662;BME280;44432;49.786;22.760;2023-05-22T07:07:29;99584.55;;;16.24;59.75
58662;BME280;44432;49.786;22.760;2023-05-22T07:10:00;99580.48;;;16.32;59.28
58662;BME280;44432;49.786;22.760;2023-05-22T07:12:30;99578.73;;;16.34;58.92
58662;BME280;44432;49.786;22.760;2023-05-22T07:15:01;99581.84;;;16.38;58.87
58662;BME280;44432;49.786;22.760;2023-05-22T07:17:32;99579.74;;;16.46;58.87
58662;BME280;44432;49.786;22.760;2023-05-22T07:20:03;99581.11;;;16.56;58.82
58662;BME280;44432;49.786;22.760;2023-05-22T07:22:35;99578.39;;;16.67;58.39
58662;BME280;44432;49.786;22.760;2023-05-22T07:25:07;99578.67;;;16.80;57.99
58662;BME280;44432;49.786;22.760;2023-05-22T07:27:38;99575.98;;;16.92;57.72
58662;BME280;44432;49.786;22.760;2023-05-22T07:30:10;99572.64;;;17.03;57.49
58662;BME280;44432;49.786;22.760;2023-05-22T07:32:41;99569.66;;;17.16;57.45
58662;BME280;44432;49.786;22.760;2023-05-22T07:35:12;99570.95;;;17.30;57.18
58662;BME280;44432;49.786;22.760;2023-05-22T07:37:42;99569.30;;;17.43;56.79
58662;BME280;44432;49.786;22.760;2023-05-22T07:40:14;99567.61;;;17.55;56.24
58662;BME280;44432;49.786;22.760;2023-05-22T07:42:44;99567.96;;;17.63;55.70
58662;BME280;44432;49.786;22.760;2023-05-22T07:45:15;99558.80;;;17.64;55.25
58662;BME280;44432;49.786;22.760;2023-05-22T07:47:46;99555.92;;;17.69;55.19
58662;BME280;44432;49.786;22.760;2023-05-22T07:50:16;99553.52;;;17.76;55.39
58662;BME280;44432;49.786;22.760;2023-05-22T07:52:47;99553.13;;;17.86;55.05
58662;BME280;44432;49.786;22.760;2023-05-22T07:55:17;99551.06;;;18.00;54.88
58662;BME280;44432;49.786;22.760;2023-05-22T07:57:48;99554.81;;;18.12;54.34
58662;BME280;44432;49.786;22.760;2023-05-22T08:00:21;99553.77;;;18.24;54.13
58662;BME280;44432;49.786;22.760;2023-05-22T08:02:51;99553.92;;;18.36;53.63
58662;BME280;44432;49.786;22.760;2023-05-22T08:05:22;99547.95;;;18.46;53.28
58662;BME280;44432;49.786;22.760;2023-05-22T08:07:53;99549.20;;;18.56;52.82
58662;BME280;44432;49.786;22.760;2023-05-22T08:10:23;99544.92;;;18.71;52.37
58662;BME280;44432;49.786;22.760;2023-05-22T08:12:54;99547.59;;;18.84;51.84
58662;BME280;44432;49.786;22.760;2023-05-22T08:15:26;99550.70;;;18.93;51.38
58662;BME280;44432;49.786;22.760;2023-05-22T08:17:57;99549.02;;;19.02;51.11
58662;BME280;44432;49.786;22.760;2023-05-22T08:20:28;99542.27;;;19.13;50.99
58662;BME280;44432;49.786;22.760;2023-05-22T08:22:58;99541.51;;;19.23;50.51
58662;BME280;44432;49.786;22.760;2023-05-22T08:25:29;99540.46;;;19.35;49.96
58662;BME280;44432;49.786;22.760;2023-05-22T08:27:59;99537.55;;;19.41;49.71
58662;BME280;44432;49.786;22.760;2023-05-22T08:30:30;99532.61;;;19.51;49.48
58662;BME280;44432;49.786;22.760;2023-05-22T08:33:01;99529.33;;;19.61;49.10
58662;BME280;44432;49.786;22.760;2023-05-22T08:35:31;99532.44;;;19.70;48.93
58662;BME280;44432;49.786;22.760;2023-05-22T08:38:02;99530.20;;;19.74;48.39
58662;BME280;44432;49.786;22.760;2023-05-22T08:40:35;99530.02;;;19.82;48.35
58662;BME280;44432;49.786;22.760;2023-05-22T08:43:07;99525.69;;;20.01;47.67
58662;BME280;44432;49.786;22.760;2023-05-22T08:45:37;99528.26;;;20.21;47.35
58662;BME280;44432;49.786;22.760;2023-05-22T08:48:12;99526.05;;;20.36;46.97
58662;BME280;44432;49.786;22.760;2023-05-22T08:50:47;99521.34;;;20.47;46.72
58662;BME280;44432;49.786;22.760;2023-05-22T08:53:29;99527.77;;;20.52;45.98
58662;BME280;44432;49.786;22.760;2023-05-22T08:56:02;99521.02;;;20.50;45.54
58662;BME280;44432;49.786;22.760;2023-05-22T08:58:36;99518.80;;;20.49;45.47
58662;BME280;44432;49.786;22.760;2023-05-22T09:01:08;99523.36;;;20.53;44.91
58662;BME280;44432;49.786;22.760;2023-05-22T09:03:39;99519.66;;;20.49;44.76
58662;BME280;44432;49.786;22.760;2023-05-22T09:06:10;99517.83;;;20.51;44.89
58662;BME280;44432;49.786;22.760;2023-05-22T09:08:40;99515.15;;;20.58;44.57
58662;BME280;44432;49.786;22.760;2023-05-22T09:11:12;99516.27;;;20.62;44.28
58662;BME280;44432;49.786;22.760;2023-05-22T09:13:42;99507.55;;;20.68;44.19
58662;BME280;44432;49.786;22.760;2023-05-22T09:16:14;99510.24;;;20.78;44.10
58662;BME280;44432;49.786;22.760;2023-05-22T09:18:45;99509.50;;;20.87;43.65
58662;BME280;44432;49.786;22.760;2023-05-22T09:21:15;99501.54;;;20.92;43.19
58662;BME280;44432;49.786;22.760;2023-05-22T09:23:50;99499.83;;;20.92;42.82
58662;BME280;44432;49.786;22.760;2023-05-22T09:26:20;99505.38;;;20.97;42.99
58662;BME280;44432;49.786;22.760;2023-05-22T09:28:51;99502.83;;;21.03;43.11
58662;BME280;44432;49.786;22.760;2023-05-22T09:31:22;99497.36;;;21.13;42.71
58662;BME280;44432;49.786;22.760;2023-05-22T09:33:53;99492.03;;;21.16;42.57
58662;BME280;44432;49.786;22.760;2023-05-22T09:36:30;99492.02;;;21.20;42.26
58662;BME280;44432;49.786;22.760;2023-05-22T09:39:02;99483.38;;;21.22;41.94
58662;BME280;44432;49.786;22.760;2023-05-22T09:41:36;99483.86;;;21.26;41.47
58662;BME280;44432;49.786;22.760;2023-05-22T09:44:16;99480.33;;;21.32;41.62
58662;BME280;44432;49.786;22.760;2023-05-22T09:46:47;99484.25;;;21.41;41.37
58662;BME280;44432;49.786;22.760;2023-05-22T09:49:17;99486.46;;;21.46;41.09
58662;BME280;44432;49.786;22.760;2023-05-22T09:51:49;99485.41;;;21.52;41.03
58662;BME280;44432;49.786;22.760;2023-05-22T09:54:22;99479.56;;;21.59;40.79
58662;BME280;44432;49.786;22.760;2023-05-22T09:56:57;99478.20;;;21.60;40.42
58662;BME280;44432;49.786;22.760;2023-05-22T09:59:29;99475.44;;;21.57;39.96
58662;BME280;44432;49.786;22.760;2023-05-22T10:02:01;99480.77;;;21.62;40.15
58662;BME280;44432;49.786;22.760;2023-05-22T10:04:33;99475.42;;;21.72;39.74
58662;BME280;44432;49.786;22.760;2023-05-22T10:07:04;99478.33;;;21.80;39.62
58662;BME280;44432;49.786;22.760;2023-05-22T10:09:38;99471.21;;;21.85;39.39
58662;BME280;44432;49.786;22.760;2023-05-22T10:12:10;99471.44;;;21.91;39.18
58662;BME280;44432;49.786;22.760;2023-05-22T10:14:45;99475.35;;;21.92;38.60
58662;BME280;44432;49.786;22.760;2023-05-22T10:17:16;99469.24;;;21.84;38.54
58662;BME280;44432;49.786;22.760;2023-05-22T10:19:47;99467.20;;;21.81;38.61
58662;BME280;44432;49.786;22.760;2023-05-22T10:22:17;99471.48;;;21.84;38.79
58662;BME280;44432;49.786;22.760;2023-05-22T10:24:51;99473.98;;;21.88;38.53
58662;BME280;44432;49.786;22.760;2023-05-22T10:27:22;99463.73;;;21.86;38.23
58662;BME280;44432;49.786;22.760;2023-05-22T10:29:54;99461.31;;;21.92;38.37
58662;BME280;44432;49.786;22.760;2023-05-22T10:32:34;99459.70;;;22.00;38.54
58662;BME280;44432;49.786;22.760;2023-05-22T10:35:14;99460.06;;;22.03;38.13
58662;BME280;44432;49.786;22.760;2023-05-22T10:37:50;99464.25;;;22.02;37.43
58662;BME280;44432;49.786;22.760;2023-05-22T10:40:25;99460.01;;;22.00;37.35
58662;BME280;44432;49.786;22.760;2023-05-22T10:42:59;99457.55;;;21.98;37.07
58662;BME280;44432;49.786;22.760;2023-05-22T10:45:31;99454.70;;;21.98;37.32
58662;BME280;44432;49.786;22.760;2023-05-22T10:48:06;99454.70;;;21.99;37.47
58662;BME280;44432;49.786;22.760;2023-05-22T10:50:37;99452.34;;;21.98;37.37
58662;BME280;44432;49.786;22.760;2023-05-22T10:53:21;99454.96;;;21.98;37.63
58662;BME280;44432;49.786;22.760;2023-05-22T10:55:53;99451.60;;;22.05;37.74
58662;BME280;44432;49.786;22.760;2023-05-22T10:58:29;99445.28;;;22.08;37.39
58662;BME280;44432;49.786;22.760;2023-05-22T11:01:11;99444.13;;;22.04;37.51
58662;BME280;44432;49.786;22.760;2023-05-22T11:03:57;99441.01;;;21.91;37.16
58662;BME280;44432;49.786;22.760;2023-05-22T11:06:36;99435.51;;;21.77;37.65
58662;BME280;44432;49.786;22.760;2023-05-22T11:09:25;99434.50;;;21.75;37.67
58662;BME280;44432;49.786;22.760;2023-05-22T11:12:15;99431.82;;;21.74;37.49
58662;BME280;44432;49.786;22.760;2023-05-22T11:14:51;99431.02;;;21.75;37.52
58662;BME280;44432;49.786;22.760;2023-05-22T11:17:23;99430.46;;;21.81;37.69
58662;BME280;44432;49.786;22.760;2023-05-22T11:20:03;99428.63;;;21.91;37.63
58662;BME280;44432;49.786;22.760;2023-05-22T11:22:36;99427.70;;;21.99;37.41
58662;BME280;44432;49.786;22.760;2023-05-22T11:25:08;99419.90;;;22.08;37.51
58662;BME280;44432;49.786;22.760;2023-05-22T11:27:40;99418.96;;;22.21;37.41
58662;BME280;44432;49.786;22.760;2023-05-22T11:30:13;99409.54;;;22.32;36.88
58662;BME280;44432;49.786;22.760;2023-05-22T11:32:45;99408.59;;;22.43;36.85
58662;BME280;44432;49.786;22.760;2023-05-22T11:35:17;99402.07;;;22.49;36.56
58662;BME280;44432;49.786;22.760;2023-05-22T11:37:48;99404.74;;;22.55;36.42
58662;BME280;44432;49.786;22.760;2023-05-22T11:40:20;99402.30;;;22.53;36.04
58662;BME280;44432;49.786;22.760;2023-05-22T11:42:53;99402.17;;;22.54;36.11
58662;BME280;44432;49.786;22.760;2023-05-22T11:45:23;99395.20;;;22.56;35.97
58662;BME280;44432;49.786;22.760;2023-05-22T11:47:54;99398.76;;;22.57;35.80
58662;BME280;44432;49.786;22.760;2023-05-22T11:50:25;99393.23;;;22.55;35.71
58662;BME280;44432;49.786;22.760;2023-05-22T11:52:56;99393.86;;;22.61;35.89
58662;BME280;44432;49.786;22.760;2023-05-22T11:55:27;99390.52;;;22.61;35.50
58662;BME280;44432;49.786;22.760;2023-05-22T11:57:58;99390.52;;;22.61;35.50
58662;BME280;44432;49.786;22.760;2023-05-22T12:00:30;99379.29;;;22.60;35.50
58662;BME280;44432;49.786;22.760;2023-05-22T12:03:01;99388.80;;;22.65;35.27
58662;BME280;44432;49.786;22.760;2023-05-22T12:05:33;99386.45;;;22.60;35.05
58662;BME280;44432;49.786;22.760;2023-05-22T12:08:04;99387.95;;;22.56;34.63
58662;BME280;44432;49.786;22.760;2023-05-22T12:10:35;99385.54;;;22.54;34.58
58662;BME280;44432;49.786;22.760;2023-05-22T12:13:06;99390.92;;;22.54;34.54
58662;BME280;44432;49.786;22.760;2023-05-22T12:15:37;99389.36;;;22.55;33.93
58662;BME280;44432;49.786;22.760;2023-05-22T12:18:09;99388.60;;;22.55;33.91
58662;BME280;44432;49.786;22.760;2023-05-22T12:20:43;99378.42;;;22.60;33.97
58662;BME280;44432;49.786;22.760;2023-05-22T12:23:21;99378.95;;;22.65;34.26
58662;BME280;44432;49.786;22.760;2023-05-22T12:26:01;99382.42;;;22.71;34.25
58662;BME280;44432;49.786;22.760;2023-05-22T12:28:33;99380.69;;;22.76;34.26
58662;BME280;44432;49.786;22.760;2023-05-22T12:31:03;99374.05;;;22.79;34.15
58662;BME280;44432;49.786;22.760;2023-05-22T12:33:34;99377.59;;;22.79;34.07
58662;BME280;44432;49.786;22.760;2023-05-22T12:36:09;99372.32;;;22.79;34.08
58662;BME280;44432;49.786;22.760;2023-05-22T12:38:40;99369.71;;;22.82;34.18
58662;BME280;44432;49.786;22.760;2023-05-22T12:41:11;99368.55;;;22.84;34.16
58662;BME280;44432;49.786;22.760;2023-05-22T12:43:42;99369.05;;;22.89;34.15
58662;BME280;44432;49.786;22.760;2023-05-22T12:46:12;99364.77;;;22.94;33.77
58662;BME280;44432;49.786;22.760;2023-05-22T12:48:43;99363.34;;;22.96;33.84
58662;BME280;44432;49.786;22.760;2023-05-22T12:51:13;99363.26;;;23.02;33.53
58662;BME280;44432;49.786;22.760;2023-05-22T12:53:44;99368.48;;;23.09;33.19
58662;BME280;44432;49.786;22.760;2023-05-22T12:56:14;99364.70;;;23.12;33.04
58662;BME280;44432;49.786;22.760;2023-05-22T12:58:45;99363.75;;;23.19;33.06
58662;BME280;44432;49.786;22.760;2023-05-22T13:01:16;99360.88;;;23.23;33.00
58662;BME280;44432;49.786;22.760;2023-05-22T13:03:47;99355.35;;;23.29;32.92
58662;BME280;44432;49.786;22.760;2023-05-22T13:06:17;99361.36;;;23.34;32.72
58662;BME280;44432;49.786;22.760;2023-05-22T13:08:48;99358.97;;;23.35;32.52
58662;BME280;44432;49.786;22.760;2023-05-22T13:11:19;99353.29;;;23.36;32.42
58662;BME280;44432;49.786;22.760;2023-05-22T13:13:51;99351.77;;;23.40;32.15
58662;BME280;44432;49.786;22.760;2023-05-22T13:16:22;99350.30;;;23.44;32.16
58662;BME280;44432;49.786;22.760;2023-05-22T13:18:52;99347.60;;;23.48;32.03
58662;BME280;44432;49.786;22.760;2023-05-22T13:21:23;99351.71;;;23.55;32.06